Time;durP1;ratioP1;P1;durP2;ratioP2;P2;SDS_P1;SDS_P2;PMS_P1;PMS_P2;Temp;Humidity;BMP_temperature;BMP_pressure;BME280_temperature;BME280_humidity;BME280_pressure;Samples;Min_cycle;Max_cycle;Signal;HPM_P1;HPM_P2
2021/08/25 00:01:18;;;;;;;5.07;4.53;;;;;;;;;;5050801;28;20187;-75
2021/08/25 00:03:44;;;;;;;8.43;4.63;;;;;;;;;;5049850;28;20631;-75
2021/08/25 00:06:09;;;;;;;5.90;4.60;;;;;;;;;;5044600;28;20287;-75
2021/08/25 00:08:35;;;;;;;5.00;3.80;;;;;;;;;;5045047;28;20184;-75
2021/08/25 00:11:00;;;;;;;7.40;4.70;;;;;;;;;;5051980;28;20294;-75
2021/08/25 00:13:25;;;;;;;5.00;4.47;;;;;;;;;;5051009;28;20183;-75
2021/08/25 00:15:50;;;;;;;4.97;4.40;;;;;;;;;;5050405;28;20679;-75
2021/08/25 00:18:16;;;;;;;6.40;4.57;;;;;;;;;;5048849;28;20200;-75
2021/08/25 00:20:41;;;;;;;5.23;4.57;;;;;;;;;;5053023;28;20207;-75
2021/08/25 00:23:07;;;;;;;5.80;4.10;;;;;;;;;;5049816;28;20190;-75
2021/08/25 00:25:33;;;;;;;5.90;4.80;;;;;;;;;;5051882;28;20263;-75
2021/08/25 00:27:58;;;;;;;7.00;4.63;;;;;;;;;;5049105;28;20588;-75
2021/08/25 00:30:23;;;;;;;5.37;4.87;;;;;;;;;;5052676;28;20429;-75
2021/08/25 00:32:49;;;;;;;6.13;5.20;;;;;;;;;;5050786;28;20322;-75
2021/08/25 00:35:14;;;;;;;5.20;4.70;;;;;;;;;;5053979;28;20233;-75
2021/08/25 00:37:40;;;;;;;4.50;4.03;;;;;;;;;;5055122;28;20203;-75
2021/08/25 00:40:05;;;;;;;8.03;4.60;;;;;;;;;;5052394;28;20180;-75
2021/08/25 00:42:31;;;;;;;6.03;4.50;;;;;;;;;;5051989;28;20708;-76
2021/08/25 00:44:58;;;;;;;4.63;4.10;;;;;;;;;;5056206;28;20187;-75
2021/08/25 00:47:23;;;;;;;4.90;4.40;;;;;;;;;;5054876;28;20282;-75
2021/08/25 00:49:49;;;;;;;5.53;5.03;;;;;;;;;;5054969;28;20873;-75
2021/08/25 00:52:14;;;;;;;6.37;4.23;;;;;;;;;;5052489;28;20693;-75
2021/08/25 00:54:39;;;;;;;6.10;4.40;;;;;;;;;;5056858;28;20429;-75
2021/08/25 00:57:05;;;;;;;5.33;4.83;;;;;;;;;;5055824;28;20200;-75
2021/08/25 00:59:31;;;;;;;4.80;4.30;;;;;;;;;;5055954;28;20187;-75
2021/08/25 01:01:57;;;;;;;5.47;4.90;;;;;;;;;;5049851;28;20195;-75
2021/08/25 01:04:30;;;;;;;5.90;4.33;;;;;;;;;;5052696;28;20499;-76
2021/08/25 01:06:56;;;;;;;8.00;4.50;;;;;;;;;;5050317;28;21113;-76
2021/08/25 01:09:21;;;;;;;6.53;4.47;;;;;;;;;;5054417;28;20446;-76
2021/08/25 01:11:49;;;;;;;5.60;4.23;;;;;;;;;;5051901;28;20495;-76
2021/08/25 01:14:15;;;;;;;4.70;4.33;;;;;;;;;;5054160;28;20251;-75
2021/08/25 01:16:40;;;;;;;4.43;4.00;;;;;;;;;;5051521;28;20611;-76
2021/08/25 01:19:07;;;;;;;3.93;3.60;;;;;;;;;;5055713;28;20611;-76
2021/08/25 01:21:33;;;;;;;4.20;3.80;;;;;;;;;;5052565;28;20237;-76
2021/08/25 01:23:58;;;;;;;4.13;3.40;;;;;;;;;;5049734;28;20844;-77
2021/08/25 01:26:24;;;;;;;4.30;3.80;;;;;;;;;;5064507;28;20449;-76
2021/08/25 01:28:56;;;;;;;6.80;3.87;;;;;;;;;;5054020;28;20187;-76
2021/08/25 01:31:26;;;;;;;4.47;4.10;;;;;;;;;;5051966;28;20231;-76
2021/08/25 01:34:01;;;;;;;3.77;3.40;;;;;;;;;;5055186;28;20431;-76
2021/08/25 01:36:27;;;;;;;4.93;4.10;;;;;;;;;;5052864;28;20553;-76
2021/08/25 01:38:55;;;;;;;4.10;3.70;;;;;;;;;;5055071;28;20422;-76
2021/08/25 01:41:21;;;;;;;4.03;3.63;;;;;;;;;;5053784;28;20180;-77
2021/08/25 01:43:46;;;;;;;4.83;3.63;;;;;;;;;;5051978;28;20450;-76
2021/08/25 01:46:25;;;;;;;3.67;3.37;;;;;;;;;;5048878;28;20270;-77
2021/08/25 01:48:51;;;;;;;4.03;3.50;;;;;;;;;;5053394;28;20194;-76
2021/08/25 01:51:16;;;;;;;3.73;3.40;;;;;;;;;;5052483;28;20489;-76
2021/08/25 01:53:42;;;;;;;4.60;3.30;;;;;;;;;;5050414;28;20452;-76
2021/08/25 01:56:07;;;;;;;4.13;3.73;;;;;;;;;;5052323;28;20183;-76
2021/08/25 01:58:32;;;;;;;4.63;3.50;;;;;;;;;;5051978;28;20171;-76
2021/08/25 02:00:57;;;;;;;4.47;3.60;;;;;;;;;;5051474;28;20198;-76
2021/08/25 02:03:22;;;;;;;3.67;3.30;;;;;;;;;;5053913;28;20218;-76
2021/08/25 02:05:48;;;;;;;5.80;4.00;;;;;;;;;;5053634;28;20187;-76
2021/08/25 02:08:13;;;;;;;4.30;3.90;;;;;;;;;;5053985;28;20223;-76
2021/08/25 02:10:39;;;;;;;5.30;3.90;;;;;;;;;;5050897;28;20198;-76
2021/08/25 02:13:05;;;;;;;4.20;3.90;;;;;;;;;;5054718;28;20183;-76
2021/08/25 02:15:30;;;;;;;4.40;3.93;;;;;;;;;;5050686;28;20487;-76
2021/08/25 02:17:55;;;;;;;4.73;4.23;;;;;;;;;;5051666;28;20719;-76
2021/08/25 02:20:20;;;;;;;4.33;3.53;;;;;;;;;;5052755;28;20348;-76
2021/08/25 02:22:46;;;;;;;4.93;4.30;;;;;;;;;;5054465;28;20285;-76
2021/08/25 02:25:11;;;;;;;3.40;3.10;;;;;;;;;;5053961;28;20275;-76
2021/08/25 02:27:36;;;;;;;3.70;3.40;;;;;;;;;;5053926;28;20350;-76
2021/08/25 02:30:02;;;;;;;5.90;3.93;;;;;;;;;;5052812;28;20203;-76
2021/08/25 02:32:27;;;;;;;4.30;3.90;;;;;;;;;;5052686;28;20207;-76
2021/08/25 02:34:53;;;;;;;5.53;3.97;;;;;;;;;;5054148;28;20425;-76
2021/08/25 02:37:18;;;;;;;4.10;3.70;;;;;;;;;;5050153;28;20204;-76
2021/08/25 02:39:44;;;;;;;4.13;3.73;;;;;;;;;;5050469;28;20195;-76
2021/08/25 02:42:09;;;;;;;4.80;4.00;;;;;;;;;;5052886;28;20269;-76
2021/08/25 02:44:34;;;;;;;4.17;3.63;;;;;;;;;;5055566;28;20277;-76
2021/08/25 02:47:00;;;;;;;3.77;3.37;;;;;;;;;;5050908;28;20660;-76
2021/08/25 02:49:25;;;;;;;5.03;4.20;;;;;;;;;;5057838;28;20207;-76
2021/08/25 02:51:50;;;;;;;4.77;3.97;;;;;;;;;;5053538;28;20210;-76
2021/08/25 02:54:15;;;;;;;4.53;2.87;;;;;;;;;;5056452;28;20667;-76
2021/08/25 02:56:41;;;;;;;4.60;3.83;;;;;;;;;;5052937;28;20595;-77
2021/08/25 02:59:06;;;;;;;4.10;3.43;;;;;;;;;;5052242;28;20550;-76
2021/08/25 03:01:31;;;;;;;4.17;3.77;;;;;;;;;;5047946;28;20191;-77
2021/08/25 03:03:56;;;;;;;3.67;3.37;;;;;;;;;;5055076;28;20190;-76
2021/08/25 03:06:22;;;;;;;4.10;3.70;;;;;;;;;;5053309;28;20362;-76
2021/08/25 03:08:47;;;;;;;4.30;3.60;;;;;;;;;;5050044;28;20184;-76
2021/08/25 03:11:12;;;;;;;5.20;3.57;;;;;;;;;;5051829;28;20207;-76
2021/08/25 03:13:38;;;;;;;6.60;3.90;;;;;;;;;;5053152;28;20227;-76
2021/08/25 03:16:04;;;;;;;4.80;4.00;;;;;;;;;;5053052;28;20183;-76
2021/08/25 03:18:29;;;;;;;7.30;4.20;;;;;;;;;;5053299;28;20434;-76
2021/08/25 03:20:54;;;;;;;6.37;3.77;;;;;;;;;;5049809;28;20561;-76
2021/08/25 03:23:19;;;;;;;3.97;3.57;;;;;;;;;;5050890;28;20191;-76
2021/08/25 03:25:44;;;;;;;4.33;3.77;;;;;;;;;;5048509;28;22933;-75
2021/08/25 03:28:10;;;;;;;3.73;3.10;;;;;;;;;;5053405;28;20195;-75
2021/08/25 03:30:35;;;;;;;4.40;3.43;;;;;;;;;;5050708;28;20179;-76
2021/08/25 03:33:04;;;;;;;4.53;4.10;;;;;;;;;;5050966;28;20644;-75
2021/08/25 03:35:29;;;;;;;4.13;3.73;;;;;;;;;;5050403;28;20179;-75
2021/08/25 03:37:54;;;;;;;3.60;3.30;;;;;;;;;;5047345;28;20823;-75
2021/08/25 03:40:19;;;;;;;3.60;3.10;;;;;;;;;;5047396;28;20322;-75
2021/08/25 03:42:45;;;;;;;4.30;3.90;;;;;;;;;;5049863;28;20174;-75
2021/08/25 03:45:11;;;;;;;4.03;3.67;;;;;;;;;;5050004;28;20194;-75
2021/08/25 03:47:36;;;;;;;3.70;3.40;;;;;;;;;;5050143;28;20246;-76
2021/08/25 03:50:01;;;;;;;4.90;4.40;;;;;;;;;;5049483;28;20172;-75
2021/08/25 03:52:27;;;;;;;5.67;3.70;;;;;;;;;;5055270;28;20195;-76
2021/08/25 03:54:52;;;;;;;4.30;3.57;;;;;;;;;;5049499;28;20183;-75
2021/08/25 03:57:17;;;;;;;4.10;3.70;;;;;;;;;;5048839;28;20760;-75
2021/08/25 03:59:43;;;;;;;4.87;4.37;;;;;;;;;;5048508;28;20194;-75
2021/08/25 04:02:08;;;;;;;4.07;3.67;;;;;;;;;;5053670;28;20188;-75
2021/08/25 04:04:33;;;;;;;4.47;3.20;;;;;;;;;;5047846;28;20194;-75
2021/08/25 04:06:58;;;;;;;4.40;4.00;;;;;;;;;;5051373;28;20195;-75
2021/08/25 04:09:23;;;;;;;4.20;3.40;;;;;;;;;;5051605;28;20191;-76
2021/08/25 04:11:49;;;;;;;4.07;3.67;;;;;;;;;;5053595;28;20253;-75
2021/08/25 04:14:14;;;;;;;5.77;3.73;;;;;;;;;;5059881;28;20573;-76
2021/08/25 04:16:39;;;;;;;4.70;4.20;;;;;;;;;;5057117;28;20244;-76
2021/08/25 04:19:04;;;;;;;4.67;4.07;;;;;;;;;;5055130;28;20172;-75
2021/08/25 04:21:30;;;;;;;3.90;3.60;;;;;;;;;;5052477;28;20201;-76
2021/08/25 04:23:55;;;;;;;4.47;3.20;;;;;;;;;;5055869;28;20198;-76
2021/08/25 04:26:20;;;;;;;5.90;4.23;;;;;;;;;;5056005;28;20281;-75
2021/08/25 04:28:45;;;;;;;6.27;3.23;;;;;;;;;;5049699;28;20187;-76
2021/08/25 04:31:11;;;;;;;4.10;3.70;;;;;;;;;;5054959;28;20216;-75
2021/08/25 04:33:36;;;;;;;4.87;3.40;;;;;;;;;;5054156;28;20270;-76
2021/08/25 04:36:02;;;;;;;3.13;2.83;;;;;;;;;;5053632;28;20183;-75
2021/08/25 04:38:27;;;;;;;3.70;3.40;;;;;;;;;;5058075;28;20188;-75
2021/08/25 04:40:56;;;;;;;4.83;3.70;;;;;;;;;;5056561;28;20934;-76
2021/08/25 04:43:21;;;;;;;3.80;3.50;;;;;;;;;;5055551;28;20180;-76
2021/08/25 04:45:46;;;;;;;3.60;3.30;;;;;;;;;;5052446;28;21057;-76
2021/08/25 04:48:12;;;;;;;4.03;3.20;;;;;;;;;;5058766;28;20207;-76
2021/08/25 04:50:37;;;;;;;4.27;3.60;;;;;;;;;;5055670;28;20254;-76
2021/08/25 04:53:07;;;;;;;3.43;2.93;;;;;;;;;;5056355;28;20311;-76
2021/08/25 04:55:32;;;;;;;3.83;3.40;;;;;;;;;;5053358;28;20187;-76
2021/08/25 04:57:57;;;;;;;3.77;3.47;;;;;;;;;;5052277;28;20452;-77
2021/08/25 05:00:23;;;;;;;3.50;3.20;;;;;;;;;;5053689;28;20245;-77
2021/08/25 05:02:50;;;;;;;8.03;3.40;;;;;;;;;;5048326;28;20279;-76
2021/08/25 05:05:16;;;;;;;3.30;3.00;;;;;;;;;;5052534;28;20271;-74
2021/08/25 05:07:41;;;;;;;3.80;3.50;;;;;;;;;;5046378;28;20540;-77
2021/08/25 05:10:06;;;;;;;3.33;3.03;;;;;;;;;;5045596;28;20757;-77
2021/08/25 05:12:31;;;;;;;4.43;3.53;;;;;;;;;;5056756;28;20221;-76
2021/08/25 05:14:57;;;;;;;4.90;4.30;;;;;;;;;;5053456;28;20171;-76
2021/08/25 05:17:22;;;;;;;4.47;3.73;;;;;;;;;;5055365;28;20203;-76
2021/08/25 05:19:47;;;;;;;4.70;3.90;;;;;;;;;;5052849;28;20167;-76
2021/08/25 05:22:13;;;;;;;5.47;3.70;;;;;;;;;;5054431;28;20652;-76
2021/08/25 05:24:38;;;;;;;5.80;3.23;;;;;;;;;;5056238;28;20180;-76
2021/08/25 05:27:03;;;;;;;4.70;4.20;;;;;;;;;;5051766;28;20206;-77
2021/08/25 05:29:28;;;;;;;6.13;3.40;;;;;;;;;;5054473;28;20194;-77
2021/08/25 05:31:54;;;;;;;3.30;3.00;;;;;;;;;;5055110;28;20725;-77
2021/08/25 05:34:19;;;;;;;3.60;3.17;;;;;;;;;;5051214;28;20202;-77
2021/08/25 05:36:44;;;;;;;9.33;3.30;;;;;;;;;;5057073;28;20698;-77
2021/08/25 05:39:10;;;;;;;5.97;3.57;;;;;;;;;;5054396;28;20551;-77
2021/08/25 05:41:35;;;;;;;3.73;3.33;;;;;;;;;;5053498;28;20558;-76
2021/08/25 05:44:04;;;;;;;3.43;3.13;;;;;;;;;;5053866;28;20433;-76
2021/08/25 05:46:30;;;;;;;5.23;3.27;;;;;;;;;;5054565;28;20226;-77
2021/08/25 05:48:55;;;;;;;3.50;3.00;;;;;;;;;;5057560;28;20446;-77
2021/08/25 05:51:20;;;;;;;10.30;3.90;;;;;;;;;;5056366;28;20846;-77
2021/08/25 05:53:47;;;;;;;3.43;3.17;;;;;;;;;;5056933;28;20204;-77
2021/08/25 05:56:13;;;;;;;4.20;2.80;;;;;;;;;;5054496;28;20205;-77
2021/08/25 05:58:40;;;;;;;3.73;2.80;;;;;;;;;;5056762;28;20422;-77
2021/08/25 06:01:05;;;;;;;3.50;2.97;;;;;;;;;;5012665;28;1172955;-76
2021/08/25 06:03:30;;;;;;;3.90;2.60;;;;;;;;;;5055793;28;20349;-77
2021/08/25 06:05:56;;;;;;;3.47;2.37;;;;;;;;;;5054504;28;20175;-76
2021/08/25 06:08:21;;;;;;;3.90;3.00;;;;;;;;;;5054071;28;20211;-76
2021/08/25 06:10:46;;;;;;;5.40;2.93;;;;;;;;;;5056999;28;20179;-77
2021/08/25 06:13:11;;;;;;;4.00;3.60;;;;;;;;;;5058485;28;20174;-76
2021/08/25 06:15:37;;;;;;;7.47;3.23;;;;;;;;;;5056779;28;20676;-76
2021/08/25 06:18:02;;;;;;;4.20;3.47;;;;;;;;;;5051874;28;20589;-76
2021/08/25 06:20:28;;;;;;;4.43;3.50;;;;;;;;;;5053220;28;20171;-76
2021/08/25 06:22:53;;;;;;;4.00;3.00;;;;;;;;;;5055103;28;20176;-76
2021/08/25 06:25:19;;;;;;;5.40;3.50;;;;;;;;;;5054732;28;20899;-76
2021/08/25 06:27:44;;;;;;;3.90;3.03;;;;;;;;;;5055216;28;20218;-77
2021/08/25 06:30:09;;;;;;;4.47;3.13;;;;;;;;;;5053560;28;20232;-76
2021/08/25 06:32:34;;;;;;;8.73;3.50;;;;;;;;;;5052437;28;20202;-76
2021/08/25 06:35:00;;;;;;;4.87;2.80;;;;;;;;;;5051799;28;20183;-76
2021/08/25 06:37:25;;;;;;;3.30;3.00;;;;;;;;;;5052444;28;20203;-76
2021/08/25 06:39:50;;;;;;;3.33;3.00;;;;;;;;;;5052115;28;20180;-77
2021/08/25 06:42:15;;;;;;;3.47;2.60;;;;;;;;;;5051119;28;20187;-77
2021/08/25 06:44:41;;;;;;;4.93;2.80;;;;;;;;;;5053730;28;20184;-76
2021/08/25 06:47:06;;;;;;;7.63;3.77;;;;;;;;;;5051346;28;20199;-76
2021/08/25 06:49:31;;;;;;;4.37;3.30;;;;;;;;;;5052400;28;20732;-76
2021/08/25 06:51:56;;;;;;;4.47;3.60;;;;;;;;;;5049003;28;20235;-77
2021/08/25 06:54:22;;;;;;;4.80;3.60;;;;;;;;;;5052791;28;20175;-76
2021/08/25 06:56:47;;;;;;;8.50;3.47;;;;;;;;;;5052981;28;20278;-76
2021/08/25 06:59:12;;;;;;;2.60;2.40;;;;;;;;;;5053766;28;20776;-77
2021/08/25 07:01:37;;;;;;;9.30;2.57;;;;;;;;;;5053105;28;20599;-76
2021/08/25 07:04:03;;;;;;;2.40;1.83;;;;;;;;;;5052942;28;20183;-76
2021/08/25 07:06:50;;;;;;;3.13;1.40;;;;;;;;;;5055447;28;20258;-77
2021/08/25 07:09:21;;;;;;;3.53;1.67;;;;;;;;;;5055008;28;20171;-76
2021/08/25 07:15:18;;;;;;;2.97;1.30;;;;;;;;;;5052305;28;21585;-77
2021/08/25 07:17:46;;;;;;;2.60;1.53;;;;;;;;;;5055095;28;20445;-77
2021/08/25 07:20:36;;;;;;;2.40;1.50;;;;;;;;;;5055084;28;20462;-78
2021/08/25 07:23:10;;;;;;;3.70;1.70;;;;;;;;;;5031948;28;20433;-76
2021/08/25 07:25:45;;;;;;;3.03;1.93;;;;;;;;;;5051844;28;20435;-77
2021/08/25 07:28:16;;;;;;;2.40;1.30;;;;;;;;;;5055506;28;20977;-76
2021/08/25 07:30:42;;;;;;;2.90;1.10;;;;;;;;;;5055712;28;20437;-76
2021/08/25 07:33:12;;;;;;;3.43;1.47;;;;;;;;;;5056286;28;20484;-76
2021/08/25 07:35:37;;;;;;;4.10;1.00;;;;;;;;;;5056817;28;20175;-76
2021/08/25 07:38:24;;;;;;;3.80;1.13;;;;;;;;;;5054993;28;20461;-77
2021/08/25 07:41:18;;;;;;;2.30;1.10;;;;;;;;;;5051970;28;20264;-76
2021/08/25 07:49:21;;;;;;;1.60;0.93;;;;;;;;;;4987655;28;20536;-73
2021/08/25 07:51:47;;;;;;;3.20;1.07;;;;;;;;;;5001003;28;20479;-72
2021/08/25 07:54:12;;;;;;;2.70;0.90;;;;;;;;;;5003847;28;20268;-73
2021/08/25 07:56:37;;;;;;;3.83;1.20;;;;;;;;;;4995333;28;20193;-73
2021/08/25 07:59:02;;;;;;;0.80;0.70;;;;;;;;;;4996260;28;20181;-73
2021/08/25 08:01:29;;;;;;;1.53;0.70;;;;;;;;;;4995170;28;20193;-74
2021/08/25 08:03:54;;;;;;;0.80;0.70;;;;;;;;;;4991783;28;20693;-72
2021/08/25 08:06:20;;;;;;;0.70;0.70;;;;;;;;;;4997926;28;20449;-73
2021/08/25 08:08:45;;;;;;;2.00;0.70;;;;;;;;;;4991954;28;20188;-73
2021/08/25 08:11:10;;;;;;;4.30;1.03;;;;;;;;;;4997481;28;20208;-73
2021/08/25 08:13:35;;;;;;;0.53;0.53;;;;;;;;;;4996517;28;20219;-73
2021/08/25 08:16:01;;;;;;;1.00;0.70;;;;;;;;;;4993250;28;20677;-74
2021/08/25 08:18:31;;;;;;;1.03;0.70;;;;;;;;;;4991959;28;20236;-74
2021/08/25 08:20:56;;;;;;;1.10;0.60;;;;;;;;;;4993986;28;20455;-73
2021/08/25 08:23:22;;;;;;;0.50;0.50;;;;;;;;;;4997125;28;21183;-73
2021/08/25 08:25:47;;;;;;;4.80;0.50;;;;;;;;;;5000262;28;20192;-74
2021/08/25 08:28:12;;;;;;;0.60;0.60;;;;;;;;;;4995745;28;20177;-72
2021/08/25 08:30:37;;;;;;;0.80;0.63;;;;;;;;;;4994752;28;20520;-73
2021/08/25 08:33:03;;;;;;;2.60;0.60;;;;;;;;;;4999161;28;20214;-73
2021/08/25 08:35:31;;;;;;;0.63;0.63;;;;;;;;;;4999188;28;20197;-73
2021/08/25 08:38:02;;;;;;;1.53;0.80;;;;;;;;;;4991577;28;20178;-73
2021/08/25 08:40:28;;;;;;;0.53;0.53;;;;;;;;;;4996713;28;20439;-73
2021/08/25 08:42:53;;;;;;;1.07;0.80;;;;;;;;;;4994402;28;20429;-73
2021/08/25 08:45:19;;;;;;;1.03;0.70;;;;;;;;;;4992185;28;20622;-73
2021/08/25 08:47:44;;;;;;;2.60;0.70;;;;;;;;;;4995267;28;20174;-73
2021/08/25 08:50:10;;;;;;;0.60;0.50;;;;;;;;;;4996933;28;20519;-73
2021/08/25 08:52:35;;;;;;;1.07;0.57;;;;;;;;;;4995566;28;20197;-73
2021/08/25 08:55:01;;;;;;;0.70;0.60;;;;;;;;;;4996496;28;20178;-72
2021/08/25 08:57:26;;;;;;;0.83;0.50;;;;;;;;;;4999859;28;20177;-73
2021/08/25 08:59:51;;;;;;;2.30;0.60;;;;;;;;;;5001733;28;20181;-72
2021/08/25 09:02:35;;;;;;;2.50;0.60;;;;;;;;;;5001376;28;20192;-73
2021/08/25 09:05:00;;;;;;;0.80;0.60;;;;;;;;;;4997674;28;20192;-72
2021/08/25 09:07:26;;;;;;;0.73;0.50;;;;;;;;;;4998424;28;20423;-73
2021/08/25 09:09:53;;;;;;;0.90;0.60;;;;;;;;;;5002868;28;20189;-73
2021/08/25 09:12:18;;;;;;;0.90;0.60;;;;;;;;;;4997082;28;20959;-72
2021/08/25 09:14:43;;;;;;;0.63;0.60;;;;;;;;;;5001558;28;20497;-73
2021/08/25 09:17:09;;;;;;;0.60;0.60;;;;;;;;;;4997294;28;20202;-73
2021/08/25 09:19:35;;;;;;;0.90;0.50;;;;;;;;;;4998078;28;20264;-73
2021/08/25 09:22:00;;;;;;;0.60;0.50;;;;;;;;;;4995564;28;20235;-73
2021/08/25 09:24:37;;;;;;;0.50;0.50;;;;;;;;;;4999806;28;20482;-72
2021/08/25 09:27:08;;;;;;;0.70;0.70;;;;;;;;;;4997351;28;20213;-72
2021/08/25 09:29:35;;;;;;;0.87;0.70;;;;;;;;;;5000253;28;20523;-73
2021/08/25 09:32:00;;;;;;;0.40;0.40;;;;;;;;;;4998598;28;20544;-72
2021/08/25 09:34:29;;;;;;;0.50;0.50;;;;;;;;;;4997601;28;20888;-73
2021/08/25 09:37:11;;;;;;;0.50;0.50;;;;;;;;;;4999045;28;20235;-73
2021/08/25 09:39:43;;;;;;;0.70;0.50;;;;;;;;;;5000176;28;20464;-73
2021/08/25 09:42:09;;;;;;;0.70;0.50;;;;;;;;;;4994898;28;20448;-73
2021/08/25 09:44:34;;;;;;;1.00;0.73;;;;;;;;;;4994655;28;20448;-72
2021/08/25 09:47:00;;;;;;;1.17;0.60;;;;;;;;;;4996341;28;20464;-72
2021/08/25 09:49:25;;;;;;;1.43;0.67;;;;;;;;;;4999788;28;20217;-73
2021/08/25 09:51:51;;;;;;;2.40;0.50;;;;;;;;;;4999039;28;20243;-73
2021/08/25 09:54:18;;;;;;;0.50;0.50;;;;;;;;;;4997691;28;20648;-73
2021/08/25 09:56:44;;;;;;;1.47;0.60;;;;;;;;;;4995061;28;20259;-72
2021/08/25 09:59:10;;;;;;;0.67;0.40;;;;;;;;;;4994139;28;21394;-73
2021/08/25 10:01:35;;;;;;;0.60;0.50;;;;;;;;;;4997745;28;20193;-72
2021/08/25 10:04:11;;;;;;;1.23;0.70;;;;;;;;;;4998755;28;20495;-73
2021/08/25 10:06:37;;;;;;;2.40;0.60;;;;;;;;;;4995445;28;20209;-73
2021/08/25 10:09:06;;;;;;;0.50;0.50;;;;;;;;;;4995529;28;20857;-72
2021/08/25 10:11:35;;;;;;;1.10;0.50;;;;;;;;;;4996033;28;20464;-73
2021/08/25 10:14:06;;;;;;;0.97;0.50;;;;;;;;;;4995728;28;20467;-72
2021/08/25 10:16:36;;;;;;;0.77;0.70;;;;;;;;;;4997729;28;20432;-73
2021/08/25 10:19:20;;;;;;;1.43;0.70;;;;;;;;;;4995909;28;20475;-73
2021/08/25 10:21:45;;;;;;;2.53;0.50;;;;;;;;;;4995193;28;21219;-73
2021/08/25 10:24:11;;;;;;;0.60;0.60;;;;;;;;;;4998215;28;20990;-73
2021/08/25 10:26:55;;;;;;;0.53;0.50;;;;;;;;;;5001001;28;20205;-73
2021/08/25 10:29:20;;;;;;;1.47;0.60;;;;;;;;;;4997998;28;20272;-73
2021/08/25 10:31:48;;;;;;;1.53;0.70;;;;;;;;;;4999436;28;20558;-73
2021/08/25 10:34:38;;;;;;;1.03;0.70;;;;;;;;;;5008461;28;20178;-73
2021/08/25 10:37:12;;;;;;;0.80;0.47;;;;;;;;;;4994737;28;20444;-73
2021/08/25 10:39:41;;;;;;;0.90;0.73;;;;;;;;;;4999771;28;20947;-72
2021/08/25 10:42:07;;;;;;;0.77;0.60;;;;;;;;;;5000814;28;20428;-73
2021/08/25 10:44:39;;;;;;;0.60;0.60;;;;;;;;;;4998644;28;20417;-72
2021/08/25 10:47:11;;;;;;;1.10;0.60;;;;;;;;;;4994676;28;20453;-72
2021/08/25 10:49:37;;;;;;;2.37;1.00;;;;;;;;;;4994978;28;20822;-72
2021/08/25 10:52:06;;;;;;;1.30;0.87;;;;;;;;;;4996220;28;20471;-73
2021/08/25 10:54:33;;;;;;;2.00;1.00;;;;;;;;;;4998938;28;20479;-72
2021/08/25 10:57:06;;;;;;;2.03;1.00;;;;;;;;;;4995125;28;20453;-72
2021/08/25 10:59:31;;;;;;;2.53;0.90;;;;;;;;;;4997545;28;20416;-73
2021/08/25 11:01:59;;;;;;;1.47;0.70;;;;;;;;;;4996977;28;20414;-73
2021/08/25 11:04:25;;;;;;;1.87;0.80;;;;;;;;;;4995762;28;20184;-74
2021/08/25 11:06:54;;;;;;;3.83;0.80;;;;;;;;;;4998508;28;20610;-74
2021/08/25 11:09:21;;;;;;;1.60;0.90;;;;;;;;;;4997260;28;20181;-73
2021/08/25 11:11:58;;;;;;;1.27;0.80;;;;;;;;;;4998467;28;20543;-73
2021/08/25 11:14:24;;;;;;;6.00;0.90;;;;;;;;;;4994120;28;20413;-73
2021/08/25 11:16:51;;;;;;;1.27;0.73;;;;;;;;;;4995963;28;20453;-73
2021/08/25 11:19:23;;;;;;;1.17;0.73;;;;;;;;;;4995969;28;20447;-73
2021/08/25 11:21:51;;;;;;;4.23;0.70;;;;;;;;;;4996967;28;20444;-73
2021/08/25 11:24:16;;;;;;;0.70;0.70;;;;;;;;;;4995230;28;20444;-74
2021/08/25 11:26:42;;;;;;;0.93;0.60;;;;;;;;;;4995085;28;20463;-73
2021/08/25 11:29:21;;;;;;;1.33;0.70;;;;;;;;;;4994479;28;20203;-73
2021/08/25 11:31:46;;;;;;;1.50;0.80;;;;;;;;;;4994371;28;20193;-73
2021/08/25 11:34:12;;;;;;;0.80;0.70;;;;;;;;;;4999557;28;20797;-73
2021/08/25 11:36:56;;;;;;;1.47;0.80;;;;;;;;;;4995922;28;20244;-73
2021/08/25 11:39:22;;;;;;;2.40;0.90;;;;;;;;;;4996476;28;20182;-73
2021/08/25 11:41:47;;;;;;;1.60;0.97;;;;;;;;;;4993342;28;20456;-74
2021/08/25 11:44:13;;;;;;;1.90;0.90;;;;;;;;;;4995836;28;20236;-73
2021/08/25 11:46:38;;;;;;;2.53;0.80;;;;;;;;;;4996978;28;20218;-73
2021/08/25 11:49:03;;;;;;;3.67;0.97;;;;;;;;;;4995080;28;20174;-73
2021/08/25 11:51:29;;;;;;;1.63;0.80;;;;;;;;;;4995990;28;20217;-73
2021/08/25 11:53:54;;;;;;;1.47;1.10;;;;;;;;;;4994371;28;20181;-73
2021/08/25 11:56:19;;;;;;;1.27;1.00;;;;;;;;;;4993851;28;20201;-73
2021/08/25 11:58:45;;;;;;;1.97;0.80;;;;;;;;;;4994824;28;20173;-73
2021/08/25 12:01:23;;;;;;;1.27;0.80;;;;;;;;;;4995190;28;20559;-73
2021/08/25 12:03:48;;;;;;;1.23;0.77;;;;;;;;;;4997953;28;20200;-73
2021/08/25 12:06:15;;;;;;;4.00;1.30;;;;;;;;;;4995830;28;21019;-73
2021/08/25 12:08:44;;;;;;;2.10;0.83;;;;;;;;;;4995762;28;20260;-73
2021/08/25 12:11:13;;;;;;;1.20;0.73;;;;;;;;;;4992867;28;20439;-73
2021/08/25 12:13:39;;;;;;;2.20;1.03;;;;;;;;;;4990499;28;20495;-73
2021/08/25 12:16:11;;;;;;;3.23;0.90;;;;;;;;;;4997017;28;20449;-73
2021/08/25 12:18:48;;;;;;;1.10;1.00;;;;;;;;;;4994719;28;20917;-73
2021/08/25 12:21:13;;;;;;;2.60;1.20;;;;;;;;;;4992534;28;20522;-73
2021/08/25 12:23:53;;;;;;;2.87;1.50;;;;;;;;;;4997201;28;20581;-73
2021/08/25 12:26:18;;;;;;;2.10;1.30;;;;;;;;;;4997810;28;20209;-73
2021/08/25 12:28:43;;;;;;;6.93;1.77;;;;;;;;;;4993237;28;20447;-73
2021/08/25 12:31:18;;;;;;;2.83;1.80;;;;;;;;;;4997624;28;20182;-73
2021/08/25 12:33:46;;;;;;;3.77;1.67;;;;;;;;;;4998793;28;20796;-73
2021/08/25 12:36:23;;;;;;;3.23;2.13;;;;;;;;;;4996236;28;21029;-73
2021/08/25 12:38:51;;;;;;;4.03;1.67;;;;;;;;;;4999779;28;20944;-73
2021/08/25 12:41:17;;;;;;;3.10;1.60;;;;;;;;;;4995042;28;21288;-73
2021/08/25 12:43:42;;;;;;;2.70;1.70;;;;;;;;;;4994932;28;20475;-73
2021/08/25 12:46:08;;;;;;;3.63;1.53;;;;;;;;;;4996364;28;20479;-73
2021/08/25 12:48:33;;;;;;;2.40;1.80;;;;;;;;;;4997541;28;20263;-73
2021/08/25 12:50:58;;;;;;;1.87;1.70;;;;;;;;;;4997662;28;20197;-72
2021/08/25 12:53:23;;;;;;;2.20;2.00;;;;;;;;;;4996198;28;20196;-74
2021/08/25 12:55:48;;;;;;;2.50;1.60;;;;;;;;;;4996288;28;21988;-73
2021/08/25 12:58:14;;;;;;;1.80;1.37;;;;;;;;;;4999433;28;20289;-73
2021/08/25 13:00:39;;;;;;;1.97;1.27;;;;;;;;;;5001039;28;20178;-72
2021/08/25 13:03:05;;;;;;;2.20;1.03;;;;;;;;;;4998437;28;20178;-73
2021/08/25 13:05:30;;;;;;;0.80;0.80;;;;;;;;;;4999587;28;20209;-72
2021/08/25 13:07:55;;;;;;;1.40;1.30;;;;;;;;;;4994508;28;20181;-72
2021/08/25 13:10:20;;;;;;;2.30;1.30;;;;;;;;;;4993123;28;20556;-72
2021/08/25 13:12:46;;;;;;;2.07;1.30;;;;;;;;;;4994467;28;20570;-72
2021/08/25 13:15:11;;;;;;;2.57;1.63;;;;;;;;;;4996156;28;20185;-72
2021/08/25 13:17:36;;;;;;;3.97;1.87;;;;;;;;;;4999341;28;20199;-72
2021/08/25 13:20:02;;;;;;;3.70;1.83;;;;;;;;;;4996341;28;20579;-72
2021/08/25 13:22:27;;;;;;;4.33;1.80;;;;;;;;;;4998517;28;20192;-73
2021/08/25 13:24:52;;;;;;;4.00;2.07;;;;;;;;;;4994545;28;20190;-72
2021/08/25 13:27:18;;;;;;;3.27;1.80;;;;;;;;;;4999792;28;20212;-73
2021/08/25 13:29:43;;;;;;;2.60;1.87;;;;;;;;;;4999536;28;20551;-72
2021/08/25 13:32:08;;;;;;;2.17;1.60;;;;;;;;;;4992747;28;20210;-72
2021/08/25 13:34:33;;;;;;;2.40;1.63;;;;;;;;;;4994708;28;20204;-73
2021/08/25 13:36:59;;;;;;;1.50;1.30;;;;;;;;;;4993612;28;20745;-73
2021/08/25 13:39:24;;;;;;;3.80;1.40;;;;;;;;;;4994915;28;20219;-72
2021/08/25 13:41:49;;;;;;;2.30;1.50;;;;;;;;;;4995947;28;20208;-72
2021/08/25 13:44:14;;;;;;;1.87;1.33;;;;;;;;;;4994271;28;20185;-72
2021/08/25 13:46:40;;;;;;;2.37;1.30;;;;;;;;;;4995127;28;20198;-73
2021/08/25 13:49:05;;;;;;;1.50;1.40;;;;;;;;;;4994270;28;20217;-72
2021/08/25 13:51:30;;;;;;;4.77;1.60;;;;;;;;;;4992867;28;20201;-73
2021/08/25 13:53:56;;;;;;;3.20;1.93;;;;;;;;;;4994280;28;20169;-73
2021/08/25 13:56:21;;;;;;;2.00;1.40;;;;;;;;;;4994417;28;20309;-72
2021/08/25 13:58:46;;;;;;;1.70;1.50;;;;;;;;;;4992912;28;20235;-72
2021/08/25 14:01:11;;;;;;;1.63;1.30;;;;;;;;;;4999644;28;20177;-72
2021/08/25 14:03:37;;;;;;;2.93;1.50;;;;;;;;;;4995217;28;20174;-72
2021/08/25 14:06:02;;;;;;;2.53;1.77;;;;;;;;;;4994432;28;20206;-73
2021/08/25 14:08:27;;;;;;;2.90;1.50;;;;;;;;;;4995164;28;20185;-74
2021/08/25 14:10:53;;;;;;;4.70;1.90;;;;;;;;;;4997348;28;20193;-73
2021/08/25 14:13:19;;;;;;;2.70;1.30;;;;;;;;;;4995175;28;20201;-73
2021/08/25 14:15:44;;;;;;;3.03;1.67;;;;;;;;;;4995464;28;20201;-74
2021/08/25 14:18:09;;;;;;;2.00;1.50;;;;;;;;;;4992099;28;20842;-73
2021/08/25 14:20:34;;;;;;;3.20;1.63;;;;;;;;;;4994486;28;20182;-74
2021/08/25 14:23:00;;;;;;;3.80;1.60;;;;;;;;;;5003340;28;20268;-74
2021/08/25 14:25:25;;;;;;;5.10;2.00;;;;;;;;;;4995093;28;20194;-74
2021/08/25 14:27:50;;;;;;;3.77;2.30;;;;;;;;;;4996925;28;20233;-74
2021/08/25 14:30:16;;;;;;;2.90;2.17;;;;;;;;;;5001310;28;20181;-73
2021/08/25 14:32:41;;;;;;;3.87;2.70;;;;;;;;;;5001443;28;20201;-74
2021/08/25 14:35:06;;;;;;;5.57;2.67;;;;;;;;;;4998657;28;20173;-74
2021/08/25 14:37:34;;;;;;;3.00;2.03;;;;;;;;;;4997982;28;20232;-74
2021/08/25 14:40:00;;;;;;;2.83;1.90;;;;;;;;;;4996851;28;20174;-74
2021/08/25 14:42:25;;;;;;;4.60;2.23;;;;;;;;;;4997380;28;20409;-74
2021/08/25 14:44:51;;;;;;;4.30;2.03;;;;;;;;;;4994458;28;20174;-75
2021/08/25 14:47:17;;;;;;;4.30;2.70;;;;;;;;;;4995910;28;20280;-74
2021/08/25 14:49:42;;;;;;;4.40;2.50;;;;;;;;;;4998797;28;20555;-74